Time;durP1;ratioP1;P1;durP2;ratioP2;P2;SDS_P1;SDS_P2;PMS_P1;PMS_P2;Temp;Humidity;BMP_temperature;BMP_pressure;BME280_temperature;BME280_humidity;BME280_pressure;Samples;Min_cycle;Max_cycle;Signal;HPM_P1;HPM_P2
2021/04/19 00:01:12;;;;;;;25.70;12.43;;;6.80;99.90;;;;;;5048430;28;20487;-80
2021/04/19 00:03:38;;;;;;;23.38;13.32;;;6.80;99.90;;;;;;5060155;28;20047;-81
2021/04/19 00:06:04;;;;;;;28.75;14.35;;;6.80;99.90;;;;;;5080524;28;20121;-80
2021/04/19 00:08:30;;;;;;;23.95;13.07;;;6.90;99.90;;;;;;5073236;28;20425;-81
2021/04/19 00:10:57;;;;;;;25.50;13.55;;;6.90;99.90;;;;;;5064046;28;20542;-82
2021/04/19 00:13:24;;;;;;;22.65;13.23;;;6.90;99.90;;;;;;5074368;28;20036;-81
2021/04/19 00:15:51;;;;;;;26.73;13.82;;;6.90;99.90;;;;;;5079049;28;20060;-82
2021/04/19 00:18:17;;;;;;;25.40;14.27;;;6.80;99.90;;;;;;5099035;28;20056;-81
2021/04/19 00:20:43;;;;;;;25.90;15.38;;;6.80;99.90;;;;;;5075062;28;20427;-82
2021/04/19 00:23:09;;;;;;;24.77;14.07;;;6.80;99.90;;;;;;5063708;28;20083;-81
2021/04/19 00:25:34;;;;;;;30.85;15.13;;;6.70;99.90;;;;;;5069158;28;20129;-80
2021/04/19 00:28:01;;;;;;;34.00;15.75;;;6.70;99.90;;;;;;5063880;28;20495;-79
2021/04/19 00:30:26;;;;;;;25.25;15.20;;;6.70;99.90;;;;;;5083539;28;20055;-80
2021/04/19 00:32:52;;;;;;;32.75;15.40;;;6.70;99.90;;;;;;5080253;28;20429;-80
2021/04/19 00:35:20;;;;;;;32.30;15.05;;;6.70;99.90;;;;;;5062344;28;20037;-80
2021/04/19 00:37:45;;;;;;;30.90;16.35;;;6.80;99.90;;;;;;5060834;28;20047;-81
2021/04/19 00:40:14;;;;;;;28.38;15.98;;;6.80;99.90;;;;;;5060518;28;20040;-80
2021/04/19 00:42:41;;;;;;;28.77;16.58;;;6.80;99.90;;;;;;5068767;28;20384;-81
2021/04/19 00:45:08;;;;;;;31.80;16.80;;;6.80;99.90;;;;;;5065726;28;20032;-80
2021/04/19 00:47:36;;;;;;;28.70;15.85;;;6.80;99.90;;;;;;5066657;28;20036;-80
2021/04/19 00:50:10;;;;;;;31.27;15.93;;;6.70;99.90;;;;;;5065888;28;20032;-80
2021/04/19 00:52:36;;;;;;;29.23;15.48;;;6.70;99.90;;;;;;5086530;28;20040;-80
2021/04/19 00:55:02;;;;;;;25.67;16.00;;;6.60;99.90;;;;;;5068788;28;20040;-79
2021/04/19 00:57:28;;;;;;;26.42;15.07;;;6.50;99.90;;;;;;5059289;28;20043;-80
2021/04/19 00:59:54;;;;;;;34.67;16.92;;;6.50;99.90;;;;;;5056546;28;20638;-78
2021/04/19 01:02:20;;;;;;;29.38;17.15;;;6.40;99.90;;;;;;5081672;28;20380;-79
2021/04/19 01:04:46;;;;;;;32.08;16.42;;;6.40;99.90;;;;;;5088872;28;20029;-81
2021/04/19 01:07:12;;;;;;;36.65;17.67;;;6.30;99.90;;;;;;5056765;28;20173;-79
2021/04/19 01:09:38;;;;;;;30.80;17.00;;;6.30;99.90;;;;;;5082583;28;20090;-79
2021/04/19 01:12:04;;;;;;;26.05;15.93;;;6.30;99.90;;;;;;5081330;28;20502;-79
2021/04/19 01:14:30;;;;;;;30.75;16.17;;;6.30;99.90;;;;;;5066982;28;20174;-79
2021/04/19 01:16:56;;;;;;;32.13;17.42;;;6.30;99.90;;;;;;5089078;28;20183;-79
2021/04/19 01:19:21;;;;;;;33.85;17.27;;;6.20;99.90;;;;;;5069355;28;20118;-80
2021/04/19 01:21:47;;;;;;;31.63;16.83;;;6.20;99.90;;;;;;5069442;28;20044;-80
2021/04/19 01:24:13;;;;;;;28.45;16.98;;;6.20;99.90;;;;;;5071867;28;20040;-79
2021/04/19 01:26:38;;;;;;;32.00;18.10;;;6.30;99.90;;;;;;5066752;28;20056;-79
2021/04/19 01:29:06;;;;;;;33.17;17.67;;;6.10;99.90;;;;;;5059927;28;20056;-78
2021/04/19 01:31:31;;;;;;;34.38;18.10;;;6.10;99.90;;;;;;5079057;28;20047;-79
2021/04/19 01:33:58;;;;;;;34.22;18.00;;;6.10;99.90;;;;;;5057241;28;20040;-81
2021/04/19 01:36:24;;;;;;;38.33;18.50;;;6.10;99.90;;;;;;5077974;28;20042;-79
2021/04/19 01:38:51;;;;;;;32.47;18.65;;;6.10;99.90;;;;;;5059417;28;20045;-80
2021/04/19 01:41:17;;;;;;;31.52;19.17;;;6.10;99.90;;;;;;5059580;28;20493;-79
2021/04/19 01:43:43;;;;;;;28.70;18.10;;;6.10;99.90;;;;;;5081385;28;20082;-80
2021/04/19 01:46:09;;;;;;;33.65;18.95;;;6.10;99.90;;;;;;5067745;28;20115;-78
2021/04/19 01:48:35;;;;;;;38.60;21.63;;;6.10;99.90;;;;;;5067127;28;20034;-78
2021/04/19 01:51:00;;;;;;;35.17;20.08;;;6.20;99.90;;;;;;5081163;28;20037;-79
2021/04/19 01:53:27;;;;;;;37.90;20.80;;;6.30;99.90;;;;;;5082955;28;20037;-79
2021/04/19 01:55:53;;;;;;;42.10;21.80;;;6.30;99.90;;;;;;5058840;28;20409;-80
2021/04/19 01:58:23;;;;;;;40.75;21.23;;;6.40;99.90;;;;;;5086573;28;20036;-79
2021/04/19 02:01:06;;;;;;;35.72;21.73;;;6.50;99.90;;;;;;5056877;28;20146;-81
2021/04/19 02:03:57;;;;;;;42.50;21.75;;;6.50;99.90;;;;;;5059592;28;20483;-79
2021/04/19 02:06:50;;;;;;;49.10;24.10;;;6.60;99.90;;;;;;5077299;28;20048;-78
2021/04/19 02:09:38;;;;;;;40.95;22.38;;;6.70;99.90;;;;;;5083190;28;20063;-79
2021/04/19 02:12:04;;;;;;;38.63;23.17;;;6.70;99.90;;;;;;5086321;28;20101;-79
2021/04/19 02:14:56;;;;;;;40.80;22.88;;;6.70;99.90;;;;;;5077002;28;20036;-79
2021/04/19 02:17:47;;;;;;;44.42;24.45;;;6.70;99.90;;;;;;5078705;28;20146;-79
2021/04/19 02:20:58;;;;;;;39.00;23.60;;;6.80;99.90;;;;;;5057166;28;20464;-78
2021/04/19 02:23:56;;;;;;;38.95;23.20;;;6.80;99.90;;;;;;5004707;28;20045;-79
2021/04/19 02:26:27;;;;;;;44.53;23.60;;;6.90;99.90;;;;;;4976074;28;20058;-79
2021/04/19 02:29:02;;;;;;;44.45;23.75;;;6.90;99.90;;;;;;5005098;28;20040;-79
2021/04/19 02:31:34;;;;;;;42.20;23.55;;;7.00;99.90;;;;;;4998156;28;20477;-79
2021/04/19 02:34:03;;;;;;;42.42;24.15;;;7.00;99.90;;;;;;5010193;28;20034;-79
2021/04/19 02:36:30;;;;;;;37.53;24.10;;;7.10;99.90;;;;;;5012265;28;20054;-79
2021/04/19 02:38:57;;;;;;;40.28;23.90;;;7.10;99.90;;;;;;5007271;28;20085;-80
2021/04/19 02:41:26;;;;;;;38.47;24.35;;;7.10;99.90;;;;;;4986879;28;20552;-79
2021/04/19 02:43:53;;;;;;;39.20;23.08;;;7.20;99.90;;;;;;4991381;28;20169;-80
2021/04/19 02:46:19;;;;;;;40.15;23.45;;;7.20;99.90;;;;;;4991837;28;20052;-79
2021/04/19 02:48:48;;;;;;;41.22;22.98;;;7.20;99.90;;;;;;4996025;28;20072;-81
2021/04/19 02:51:14;;;;;;;37.70;22.88;;;7.20;99.90;;;;;;4974051;28;20037;-79
2021/04/19 02:53:43;;;;;;;41.20;24.27;;;7.20;99.90;;;;;;5009216;28;20061;-80
2021/04/19 02:56:10;;;;;;;41.80;22.45;;;7.20;99.90;;;;;;4975898;28;20050;-79
2021/04/19 02:58:40;;;;;;;39.75;23.25;;;7.20;99.90;;;;;;5004887;28;20497;-79
2021/04/19 03:01:13;;;;;;;43.13;23.55;;;7.20;99.90;;;;;;5023228;28;20040;-79
2021/04/19 03:03:43;;;;;;;44.80;22.73;;;7.20;99.90;;;;;;5054074;28;20128;-80
2021/04/19 03:06:10;;;;;;;39.15;23.40;;;7.20;99.90;;;;;;5075352;28;20071;-79
2021/04/19 03:08:40;;;;;;;39.95;24.10;;;7.20;99.90;;;;;;5079916;28;20036;-79
2021/04/19 03:11:20;;;;;;;42.95;24.20;;;7.20;99.90;;;;;;5048733;28;20065;-79
2021/04/19 03:13:49;;;;;;;44.45;24.58;;;7.20;99.90;;;;;;5075175;28;20459;-80
2021/04/19 03:16:21;;;;;;;39.42;23.02;;;7.20;99.90;;;;;;5055827;28;20443;-80
2021/04/19 03:18:50;;;;;;;40.22;23.25;;;7.20;99.90;;;;;;5045879;28;20456;-81
2021/04/19 03:21:24;;;;;;;38.13;21.92;;;7.20;99.90;;;;;;5059956;28;20047;-80
2021/04/19 03:23:53;;;;;;;35.17;22.53;;;7.30;99.90;;;;;;5053439;28;20098;-81
2021/04/19 03:26:23;;;;;;;36.83;22.77;;;7.30;99.90;;;;;;5054457;28;20404;-79
2021/04/19 03:28:51;;;;;;;34.75;22.75;;;7.20;99.90;;;;;;5040741;28;20044;-80
2021/04/19 03:31:27;;;;;;;38.42;22.40;;;7.20;99.90;;;;;;5066991;28;20238;-79
2021/04/19 03:33:57;;;;;;;40.55;22.60;;;7.20;99.90;;;;;;5074031;28;20052;-80
2021/04/19 03:36:25;;;;;;;36.70;22.98;;;7.10;99.90;;;;;;5077875;28;20042;-79
2021/04/19 03:38:52;;;;;;;33.53;21.08;;;7.10;99.90;;;;;;5075810;28;20042;-80
2021/04/19 03:41:19;;;;;;;36.30;21.58;;;7.00;99.90;;;;;;5055769;28;20029;-79
2021/04/19 03:43:52;;;;;;;32.83;22.67;;;7.00;99.90;;;;;;5075603;28;20032;-80
2021/04/19 03:46:20;;;;;;;38.63;22.63;;;7.00;99.90;;;;;;5054729;28;20037;-79
2021/04/19 03:48:48;;;;;;;43.50;22.13;;;7.00;99.90;;;;;;5081637;28;20446;-81
2021/04/19 03:51:16;;;;;;;34.65;22.38;;;6.90;99.90;;;;;;5074878;28;20062;-79
2021/04/19 03:53:44;;;;;;;35.95;23.05;;;6.90;99.90;;;;;;5066376;28;20071;-80
2021/04/19 03:56:12;;;;;;;40.60;23.48;;;7.00;99.90;;;;;;5094262;28;20502;-79
2021/04/19 03:58:38;;;;;;;36.17;22.98;;;6.90;99.90;;;;;;5063361;28;20085;-79
2021/04/19 04:01:07;;;;;;;40.05;23.33;;;6.80;99.90;;;;;;5077601;28;20042;-79
2021/04/19 04:03:35;;;;;;;36.25;24.38;;;6.80;99.90;;;;;;5083243;28;20045;-79
2021/04/19 04:06:02;;;;;;;44.80;24.65;;;7.00;99.90;;;;;;5078693;28;20064;-80
2021/04/19 04:08:30;;;;;;;38.50;25.25;;;6.90;99.90;;;;;;5071388;28;20494;-79
2021/04/19 04:10:57;;;;;;;44.80;26.00;;;6.90;99.90;;;;;;5062158;28;20047;-80
2021/04/19 04:13:23;;;;;;;41.35;24.65;;;6.90;99.90;;;;;;5077307;28;20085;-79
2021/04/19 04:15:54;;;;;;;49.00;25.80;;;6.90;99.90;;;;;;5068363;28;20043;-81
2021/04/19 04:18:20;;;;;;;41.63;24.75;;;7.00;99.90;;;;;;5049993;28;20277;-79
2021/04/19 04:20:47;;;;;;;43.72;24.85;;;7.00;99.90;;;;;;5086622;28;20202;-80
2021/04/19 04:23:15;;;;;;;42.92;24.45;;;7.00;99.90;;;;;;5075517;28;20056;-79
2021/04/19 04:25:41;;;;;;;37.63;23.60;;;7.00;99.90;;;;;;5057746;28;20107;-79
2021/04/19 04:28:07;;;;;;;35.15;23.02;;;7.00;99.90;;;;;;5078713;28;20131;-79
2021/04/19 04:30:35;;;;;;;43.78;24.35;;;7.10;99.90;;;;;;5066752;28;20450;-79
2021/04/19 04:33:06;;;;;;;37.97;22.95;;;7.10;99.90;;;;;;5068725;28;20048;-79
2021/04/19 04:35:33;;;;;;;37.83;23.00;;;7.10;99.90;;;;;;5090937;28;20040;-80
2021/04/19 04:38:00;;;;;;;37.38;23.35;;;7.00;99.90;;;;;;5068807;28;20480;-79
2021/04/19 04:40:27;;;;;;;33.03;22.10;;;7.10;99.90;;;;;;5047245;28;20126;-79
2021/04/19 04:43:07;;;;;;;39.17;21.85;;;7.10;99.90;;;;;;5086507;28;20050;-80
2021/04/19 04:45:33;;;;;;;33.80;21.42;;;7.10;99.90;;;;;;5073992;28;20044;-79
2021/04/19 04:48:22;;;;;;;39.20;22.08;;;7.10;99.90;;;;;;5073249;28;20039;-79
2021/04/19 04:51:04;;;;;;;34.88;21.45;;;7.10;99.90;;;;;;5065144;28;20119;-80
2021/04/19 04:53:37;;;;;;;39.03;21.02;;;7.10;99.90;;;;;;5063039;28;20475;-77
2021/04/19 04:56:06;;;;;;;37.85;20.63;;;7.60;99.90;;;;;;5075856;28;20040;-78
2021/04/19 04:58:35;;;;;;;35.30;21.80;;;7.50;99.90;;;;;;5066801;28;20114;-77
2021/04/19 05:01:03;;;;;;;34.95;21.17;;;7.40;99.90;;;;;;5069641;28;20107;-79
2021/04/19 05:03:30;;;;;;;34.45;20.52;;;7.30;99.90;;;;;;5069605;28;20040;-77
2021/04/19 05:05:56;;;;;;;36.67;21.08;;;7.30;99.90;;;;;;5087408;28;20475;-78
2021/04/19 05:08:25;;;;;;;36.83;21.75;;;7.20;99.90;;;;;;5087194;28;20085;-77
2021/04/19 05:10:51;;;;;;;38.80;20.77;;;7.20;99.90;;;;;;5082912;28;20073;-79
2021/04/19 05:13:18;;;;;;;36.72;21.48;;;7.20;99.90;;;;;;5070441;28;20051;-79
2021/04/19 05:15:46;;;;;;;30.80;21.20;;;7.20;99.90;;;;;;5092835;28;20119;-78
2021/04/19 05:18:14;;;;;;;32.63;21.50;;;7.20;99.90;;;;;;5070193;28;20045;-78
2021/04/19 05:20:40;;;;;;;33.58;21.65;;;7.20;99.90;;;;;;5085285;28;20040;-79
2021/04/19 05:23:06;;;;;;;36.03;20.85;;;7.20;99.90;;;;;;5064578;28;20045;-79
2021/04/19 05:25:32;;;;;;;36.00;21.20;;;7.20;99.90;;;;;;5057510;28;20111;-80
2021/04/19 05:28:02;;;;;;;33.42;20.85;;;7.20;99.90;;;;;;5091124;28;20162;-77
2021/04/19 05:30:29;;;;;;;34.33;21.90;;;7.20;99.90;;;;;;5090304;28;20036;-78
2021/04/19 05:32:57;;;;;;;36.28;20.98;;;7.20;99.90;;;;;;5071682;28;20143;-77
2021/04/19 05:35:23;;;;;;;39.35;20.90;;;7.20;99.90;;;;;;5050337;28;20531;-78
2021/04/19 05:37:53;;;;;;;36.65;20.15;;;7.20;99.90;;;;;;5082334;28;20070;-79
2021/04/19 05:40:25;;;;;;;34.85;20.45;;;7.10;99.90;;;;;;5081029;28;20032;-79
2021/04/19 05:42:51;;;;;;;31.30;20.13;;;7.20;99.90;;;;;;5088388;28;20118;-81
2021/04/19 05:45:18;;;;;;;37.42;20.95;;;7.20;99.90;;;;;;5083039;28;20078;-80
2021/04/19 05:47:45;;;;;;;35.33;19.90;;;7.30;99.90;;;;;;5086713;28;20042;-80
2021/04/19 05:50:12;;;;;;;35.20;20.50;;;7.40;99.90;;;;;;5070459;28;20387;-79
2021/04/19 05:52:38;;;;;;;36.72;19.77;;;7.50;99.90;;;;;;5079229;28;20043;-77
2021/04/19 05:55:05;;;;;;;35.60;19.23;;;7.60;99.90;;;;;;5077598;28;20044;-78
2021/04/19 05:57:53;;;;;;;30.95;18.48;;;7.70;99.90;;;;;;5056548;28;20118;-78
2021/04/19 06:00:33;;;;;;;25.75;17.00;;;7.90;99.90;;;;;;5059238;28;20032;-79
2021/04/19 06:03:33;;;;;;;32.13;17.45;;;8.00;99.90;;;;;;5081862;28;20029;-80
2021/04/19 06:06:15;;;;;;;26.67;16.60;;;8.10;99.90;;;;;;5085368;28;20043;-79
2021/04/19 06:08:50;;;;;;;30.42;16.13;;;8.10;99.90;;;;;;5089924;28;20040;-79
2021/04/19 06:11:20;;;;;;;28.55;15.63;;;8.10;99.90;;;;;;5063633;28;20504;-78
2021/04/19 06:13:48;;;;;;;30.27;15.82;;;8.10;99.90;;;;;;5083793;28;20518;-79
2021/04/19 06:16:16;;;;;;;26.20;15.60;;;8.20;99.90;;;;;;5062917;28;20139;-79
2021/04/19 06:18:44;;;;;;;31.77;15.20;;;8.20;99.90;;;;;;5086860;28;20044;-80
2021/04/19 06:21:11;;;;;;;22.85;13.82;;;8.40;99.90;;;;;;5062188;28;20032;-79
2021/04/19 06:23:39;;;;;;;23.73;14.00;;;8.40;99.90;;;;;;5065961;28;20032;-79
2021/04/19 06:26:09;;;;;;;24.30;14.10;;;8.50;99.90;;;;;;5059490;28;20543;-79
2021/04/19 06:28:36;;;;;;;24.35;13.77;;;8.50;99.90;;;;;;5060548;28;20064;-77
2021/04/19 06:31:04;;;;;;;27.88;14.88;;;8.50;99.90;;;;;;5078598;28;20047;-77
2021/04/19 06:33:32;;;;;;;24.10;14.32;;;8.60;99.90;;;;;;5078165;28;20075;-77
2021/04/19 06:35:58;;;;;;;28.95;14.55;;;8.60;99.90;;;;;;5081031;28;20119;-81
2021/04/19 06:38:24;;;;;;;28.52;14.88;;;8.70;99.90;;;;;;5079980;28;20050;-77
2021/04/19 06:40:50;;;;;;;28.00;14.77;;;8.80;99.90;;;;;;5083937;28;20040;-80
2021/04/19 06:43:18;;;;;;;22.30;14.68;;;8.90;99.90;;;;;;5064975;28;20070;-79
2021/04/19 06:45:44;;;;;;;28.15;15.88;;;9.10;99.90;;;;;;5075406;28;20058;-77
2021/04/19 06:48:11;;;;;;;27.60;14.88;;;9.20;99.90;;;;;;5099437;28;20102;-78
2021/04/19 06:50:39;;;;;;;27.45;14.27;;;9.20;99.90;;;;;;5079657;28;20068;-76
2021/04/19 06:53:05;;;;;;;33.92;15.93;;;9.30;99.90;;;;;;5096901;28;20031;-78
2021/04/19 06:55:31;;;;;;;26.48;15.05;;;9.40;99.90;;;;;;5100078;28;20040;-76
2021/04/19 06:58:00;;;;;;;30.08;13.80;;;9.40;99.90;;;;;;5085613;28;20039;-78
2021/04/19 07:00:30;;;;;;;23.67;14.40;;;9.60;99.90;;;;;;5079688;28;20074;-77
2021/04/19 07:03:00;;;;;;;24.08;14.73;;;9.70;99.90;;;;;;5071632;28;20056;-80
2021/04/19 07:05:29;;;;;;;22.58;14.05;;;9.90;99.90;;;;;;5077488;28;20040;-80
2021/04/19 07:08:13;;;;;;;24.08;14.57;;;9.90;99.90;;;;;;5054417;28;20552;-80
2021/04/19 07:10:42;;;;;;;28.15;14.85;;;10.00;99.90;;;;;;5057514;28;20067;-81
2021/04/19 07:13:10;;;;;;;27.73;14.85;;;10.00;99.90;;;;;;5057381;28;20148;-81
2021/04/19 07:15:39;;;;;;;24.73;15.13;;;10.00;99.90;;;;;;5045139;28;20390;-82
2021/04/19 07:18:06;;;;;;;26.23;14.93;;;10.00;99.90;;;;;;5073373;28;20059;-82
2021/04/19 07:20:33;;;;;;;25.27;15.70;;;10.00;99.90;;;;;;5088285;28;20464;-81
2021/04/19 07:23:02;;;;;;;23.30;14.90;;;9.90;99.90;;;;;;5089523;28;20032;-82
2021/04/19 07:25:29;;;;;;;30.75;16.05;;;10.00;99.90;;;;;;5056739;28;20053;-81
2021/04/19 07:27:55;;;;;;;27.45;15.57;;;10.00;99.90;;;;;;5050125;28;20052;-81
2021/04/19 07:30:21;;;;;;;25.35;15.90;;;10.00;99.90;;;;;;5056630;28;20083;-81
2021/04/19 07:32:47;;;;;;;27.77;15.90;;;10.00;99.90;;;;;;5086110;28;20036;-81
2021/04/19 07:35:14;;;;;;;30.35;15.75;;;10.10;99.90;;;;;;5070217;28;20463;-81
2021/04/19 07:37:55;;;;;;;29.23;16.23;;;10.10;99.90;;;;;;5074911;28;20116;-81
2021/04/19 07:40:38;;;;;;;28.90;16.83;;;10.10;99.90;;;;;;5091869;28;20105;-81
2021/04/19 07:43:20;;;;;;;28.15;15.43;;;10.20;99.90;;;;;;5057094;28;20044;-82
2021/04/19 07:46:23;;;;;;;29.48;16.05;;;10.30;99.90;;;;;;5072034;28;20036;-82
2021/04/19 07:48:51;;;;;;;31.20;17.10;;;10.30;99.90;;;;;;5083445;28;20028;-81
2021/04/19 07:51:34;;;;;;;28.10;17.05;;;10.40;99.90;;;;;;5053432;28;20118;-83
2021/04/19 07:54:23;;;;;;;30.92;16.65;;;10.50;99.90;;;;;;5042265;28;20047;-82
2021/04/19 07:56:52;;;;;;;40.33;16.98;;;10.60;99.90;;;;;;5049319;28;20412;-82
2021/04/19 07:59:24;;;;;;;25.50;15.00;;;10.40;99.90;;;;;;5057002;28;20040;-81
2021/04/19 08:02:09;;;;;;;27.52;15.50;;;10.60;99.90;;;;;;5076191;28;20032;-81
2021/04/19 08:04:44;;;;;;;;;;;10.60;99.90;;;;;;5060005;28;20142;-77
2021/04/19 08:07:17;;;;;;;25.10;14.93;;;10.60;99.90;;;;;;5064165;28;19917;-83
2021/04/19 08:09:56;;;;;;;25.13;15.80;;;10.90;99.90;;;;;;5056044;28;20040;-80
2021/04/19 08:12:42;;;;;;;23.95;14.35;;;10.70;99.90;;;;;;5090735;28;20090;-83
2021/04/19 08:15:13;;;;;;;26.80;14.38;;;10.80;99.90;;;;;;5083959;28;20059;-81
2021/04/19 08:17:39;;;;;;;26.50;13.68;;;10.80;99.90;;;;;;5057234;28;20451;-82
2021/04/19 08:20:07;;;;;;;22.50;13.55;;;10.90;99.90;;;;;;5054219;28;20048;-81
2021/04/19 08:22:33;;;;;;;23.67;14.85;;;11.00;99.90;;;;;;5079477;28;20039;-76
2021/04/19 08:25:21;;;;;;;22.92;14.95;;;11.00;99.90;;;;;;5056758;28;20067;-79
2021/04/19 08:28:08;;;;;;;25.48;14.13;;;11.00;99.90;;;;;;5077362;28;20091;-79
2021/04/19 08:30:35;;;;;;;27.85;14.73;;;11.10;99.90;;;;;;5062835;28;20079;-80
2021/04/19 08:33:01;;;;;;;22.45;13.93;;;11.20;99.90;;;;;;5052614;28;20045;-83
2021/04/19 08:35:28;;;;;;;23.08;14.75;;;11.30;99.90;;;;;;5062444;28;20040;-81
2021/04/19 08:37:57;;;;;;;25.85;15.00;;;11.40;99.90;;;;;;5079633;28;20040;-83
2021/04/19 08:40:29;;;;;;;23.88;14.52;;;11.40;99.90;;;;;;5060816;28;20048;-84
2021/04/19 08:42:56;;;;;;;28.45;14.60;;;11.60;99.90;;;;;;5065539;28;20032;-84
2021/04/19 08:45:27;;;;;;;21.85;14.50;;;11.50;99.90;;;;;;5067091;28;20040;-82
2021/04/19 08:47:54;;;;;;;28.45;14.63;;;11.70;99.90;;;;;;5065694;28;20052;-83
2021/04/19 08:50:25;;;;;;;21.55;14.10;;;11.70;99.90;;;;;;5080756;28;20383;-83
2021/04/19 08:52:57;;;;;;;21.85;14.18;;;11.80;99.90;;;;;;5062611;28;20093;-83
2021/04/19 08:55:24;;;;;;;26.95;14.77;;;11.90;99.90;;;;;;5061332;28;20079;-82
2021/04/19 08:57:50;;;;;;;22.95;14.57;;;11.70;99.90;;;;;;5083632;28;20041;-79
2021/04/19 09:00:25;;;;;;;24.70;14.80;;;11.80;99.90;;;;;;5066386;28;20098;-80
2021/04/19 09:02:51;;;;;;;25.25;15.07;;;11.80;99.90;;;;;;5081228;28;20166;-80
2021/04/19 09:05:19;;;;;;;23.73;15.40;;;11.90;99.90;;;;;;5060912;28;20492;-80
2021/04/19 09:07:48;;;;;;;24.25;15.43;;;11.90;99.90;;;;;;5054049;28;20066;-82
2021/04/19 09:10:17;;;;;;;24.73;15.20;;;12.00;99.90;;;;;;5059338;28;20028;-83
2021/04/19 09:12:43;;;;;;;27.67;17.30;;;12.00;99.90;;;;;;5069217;28;20056;-80
2021/04/19 09:15:18;;;;;;;28.27;17.58;;;12.00;99.90;;;;;;5084276;28;20045;-80
2021/04/19 09:18:05;;;;;;;26.80;18.20;;;12.10;99.90;;;;;;5062753;28;20132;-82
2021/04/19 09:20:45;;;;;;;31.65;17.33;;;12.10;99.90;;;;;;5065006;28;20127;-82
2021/04/19 09:23:37;;;;;;;29.52;17.17;;;12.30;99.90;;;;;;5077458;28;20135;-80
2021/04/19 09:26:03;;;;;;;26.13;16.63;;;12.50;99.90;;;;;;5055933;28;20101;-79
2021/04/19 09:28:41;;;;;;;23.52;14.65;;;12.60;99.90;;;;;;5061315;28;20044;-80
2021/04/19 09:31:12;;;;;;;25.27;15.82;;;12.60;99.90;;;;;;5059982;28;20106;-81
2021/04/19 09:33:39;;;;;;;28.27;16.95;;;12.50;99.90;;;;;;5051074;28;20040;-80
2021/04/19 09:36:05;;;;;;;26.25;16.05;;;12.50;99.90;;;;;;5038603;28;20041;-81
2021/04/19 09:38:34;;;;;;;27.38;15.43;;;12.50;99.90;;;;;;5039026;28;20113;-79
2021/04/19 09:41:12;;;;;;;25.02;15.98;;;12.50;99.90;;;;;;5054215;28;20037;-80
2021/04/19 09:43:40;;;;;;;24.42;15.68;;;12.60;99.90;;;;;;5070063;28;20048;-80
2021/04/19 09:46:16;;;;;;;21.52;14.73;;;12.70;99.90;;;;;;5073873;28;20036;-80
2021/04/19 09:49:03;;;;;;;27.45;15.98;;;12.70;99.90;;;;;;5044647;28;20033;-82
2021/04/19 09:51:38;;;;;;;28.17;15.70;;;12.90;99.90;;;;;;5044938;28;20432;-81
2021/04/19 09:54:15;;;;;;;30.48;16.98;;;13.00;99.90;;;;;;5043121;28;20148;-83
2021/04/19 09:56:44;;;;;;;24.92;17.70;;;13.20;99.90;;;;;;5090000;28;20044;-82
2021/04/19 09:59:16;;;;;;;31.38;19.40;;;13.30;99.90;;;;;;5094941;28;20043;-82
2021/04/19 10:01:48;;;;;;;29.90;19.75;;;13.20;99.90;;;;;;5060234;28;20053;-82
2021/04/19 10:04:14;;;;;;;27.05;18.83;;;13.40;99.90;;;;;;5065361;28;20411;-82
2021/04/19 10:06:56;;;;;;;29.90;19.23;;;13.30;99.90;;;;;;5038386;28;20048;-80
2021/04/19 10:09:29;;;;;;;26.25;18.58;;;13.30;99.90;;;;;;5053686;28;20049;-82
2021/04/19 10:12:00;;;;;;;31.42;20.75;;;13.20;99.90;;;;;;5043504;28;20028;-80
2021/04/19 10:14:27;;;;;;;28.90;19.42;;;13.20;99.90;;;;;;5089269;28;20039;-82
2021/04/19 10:16:53;;;;;;;32.92;20.30;;;13.40;99.90;;;;;;5060436;28;20065;-81
2021/04/19 10:19:30;;;;;;;27.65;20.08;;;13.80;99.90;;;;;;5060939;28;20119;-81
2021/04/19 10:22:10;;;;;;;26.73;19.48;;;13.80;99.90;;;;;;5055401;28;20068;-81
2021/04/19 10:24:48;;;;;;;30.38;19.50;;;13.70;99.90;;;;;;5085247;28;20033;-81
2021/04/19 10:27:25;;;;;;;33.03;20.35;;;13.70;99.90;;;;;;5079089;28;20056;-81
2021/04/19 10:29:52;;;;;;;23.08;17.70;;;13.90;99.90;;;;;;5076578;28;20377;-81
2021/04/19 10:32:30;;;;;;;30.67;18.90;;;14.10;99.90;;;;;;5077745;28;20134;-82
2021/04/19 10:34:56;;;;;;;27.55;18.75;;;14.20;99.90;;;;;;5078052;28;20048;-81
2021/04/19 10:37:21;;;;;;;30.25;19.77;;;14.20;99.90;;;;;;5129607;27;20034;-81
2021/04/19 10:39:47;;;;;;;31.30;20.98;;;14.30;99.90;;;;;;5126294;27;20448;-81
2021/04/19 10:42:27;;;;;;;31.63;20.80;;;14.60;99.90;;;;;;5095502;28;20136;-80
2021/04/19 10:44:55;;;;;;;31.27;20.40;;;14.60;99.90;;;;;;5113797;28;20043;-82
2021/04/19 10:47:31;;;;;;;32.03;20.95;;;14.30;99.90;;;;;;5093776;28;20485;-81
2021/04/19 10:49:57;;;;;;;29.90;21.05;;;14.30;99.90;;;;;;5111764;28;20042;-81
2021/04/19 10:52:23;;;;;;;31.45;20.90;;;14.10;99.90;;;;;;5112564;28;20035;-81
2021/04/19 10:54:49;;;;;;;34.55;19.77;;;14.20;99.90;;;;;;5095809;28;20085;-81
2021/04/19 10:57:26;;;;;;;28.48;20.08;;;14.20;99.90;;;;;;5111393;28;20044;-81
2021/04/19 10:59:53;;;;;;;29.23;19.95;;;14.30;99.90;;;;;;5069592;28;20380;-81
2021/04/19 11:02:24;;;;;;;11.52;7.47;;;14.50;99.90;;;;;;5096276;28;20036;-76
2021/04/19 11:04:49;;;;;;;28.75;19.48;;;15.30;99.90;;;;;;5098890;28;20039;-82
2021/04/19 11:07:23;;;;;;;24.50;18.17;;;15.30;99.90;;;;;;5082870;28;20052;-81
2021/04/19 11:10:23;;;;;;;18.92;13.05;;;15.30;99.90;;;;;;5057555;28;20460;-82
2021/04/19 11:13:03;;;;;;;29.25;18.15;;;15.80;99.90;;;;;;5099373;28;20032;-82
2021/04/19 11:15:30;;;;;;;23.48;17.35;;;16.10;99.90;;;;;;5108181;28;20089;-82
2021/04/19 11:17:56;;;;;;;21.45;15.70;;;15.90;99.90;;;;;;5077694;28;20390;-82
2021/04/19 11:20:26;;;;;;;22.65;17.00;;;16.00;99.40;;;;;;5066210;28;20126;-82
2021/04/19 11:22:58;;;;;;;28.17;18.67;;;16.00;99.20;;;;;;5074186;28;20471;-81
2021/04/19 11:25:31;;;;;;;24.15;18.35;;;15.90;99.90;;;;;;5085646;28;20486;-81
2021/04/19 11:28:17;;;;;;;24.27;17.23;;;16.00;99.80;;;;;;5078643;28;20044;-81
2021/04/19 11:30:44;;;;;;;25.38;18.60;;;15.90;98.80;;;;;;5077959;28;20090;-81
2021/04/19 11:33:16;;;;;;;29.27;19.20;;;16.10;99.80;;;;;;5063518;28;20123;-81
2021/04/19 11:35:44;;;;;;;26.92;18.63;;;16.30;99.90;;;;;;5081052;28;20123;-80
2021/04/19 11:38:18;;;;;;;23.95;18.42;;;16.50;99.90;;;;;;5075260;28;20107;-81
2021/04/19 11:40:47;;;;;;;29.75;19.23;;;16.60;99.90;;;;;;5085416;28;20063;-80
2021/04/19 11:43:32;;;;;;;23.85;17.90;;;16.90;99.90;;;;;;5090697;28;20052;-82
2021/04/19 11:46:13;;;;;;;27.88;18.10;;;17.00;98.30;;;;;;5083018;28;20041;-81
2021/04/19 11:48:42;;;;;;;25.55;17.63;;;17.10;97.10;;;;;;5077560;28;20438;-82
2021/04/19 11:51:09;;;;;;;23.45;17.92;;;16.80;97.80;;;;;;5081496;28;20422;-82
2021/04/19 11:53:38;;;;;;;19.70;15.63;;;17.10;99.10;;;;;;5070016;28;20071;-81
2021/04/19 11:56:05;;;;;;;24.35;18.40;;;16.80;95.90;;;;;;5059819;28;20040;-82
2021/04/19 11:58:43;;;;;;;25.67;17.40;;;16.80;97.30;;;;;;5082890;28;20116;-81
2021/04/19 12:01:10;;;;;;;21.08;16.73;;;16.50;96.60;;;;;;5075458;28;20715;-82
2021/04/19 12:03:38;;;;;;;23.48;17.73;;;16.90;99.60;;;;;;5072292;28;20040;-81
2021/04/19 12:06:05;;;;;;;22.27;17.13;;;17.00;98.10;;;;;;5090233;28;20052;-82
2021/04/19 12:08:31;;;;;;;23.80;17.60;;;17.10;97.50;;;;;;5086125;28;20052;-81
2021/04/19 12:10:58;;;;;;;25.35;18.27;;;17.50;97.90;;;;;;5094019;28;20055;-82
2021/04/19 12:13:24;;;;;;;21.25;17.10;;;17.20;95.70;;;;;;5092026;28;20467;-80
2021/04/19 12:15:52;;;;;;;22.48;17.27;;;17.50;97.00;;;;;;5063923;28;20055;-80
2021/04/19 12:18:19;;;;;;;24.13;16.77;;;17.70;93.80;;;;;;5077864;28;20194;-83
2021/04/19 12:20:48;;;;;;;23.33;16.05;;;17.90;93.40;;;;;;5061190;28;20040;-81
2021/04/19 12:23:14;;;;;;;21.17;15.63;;;17.90;91.40;;;;;;5067856;28;20045;-81
2021/04/19 12:25:40;;;;;;;20.80;16.13;;;17.50;91.70;;;;;;5086970;28;20128;-82
2021/04/19 12:28:06;;;;;;;21.42;16.67;;;17.30;92.70;;;;;;5061539;28;20083;-80
2021/04/19 12:30:35;;;;;;;25.55;16.50;;;17.10;94.60;;;;;;5077239;28;20040;-81
2021/04/19 12:33:01;;;;;;;22.30;17.50;;;17.20;92.20;;;;;;5072870;28;20035;-80
2021/04/19 12:35:27;;;;;;;22.48;17.20;;;17.00;94.30;;;;;;5061200;28;20368;-81
2021/04/19 12:37:53;;;;;;;21.73;16.63;;;17.20;95.00;;;;;;5095114;28;20032;-82
2021/04/19 12:40:22;;;;;;;22.08;17.08;;;17.10;94.80;;;;;;5063176;28;20052;-82
2021/04/19 12:42:50;;;;;;;21.55;17.73;;;17.20;94.70;;;;;;5057443;28;20491;-82
2021/04/19 12:45:17;;;;;;;22.50;18.30;;;17.00;96.80;;;;;;5077308;28;20391;-82
2021/04/19 12:47:53;;;;;;;20.13;16.95;;;17.70;97.40;;;;;;5064597;28;20416;-81
2021/04/19 12:50:19;;;;;;;24.48;17.05;;;17.90;95.10;;;;;;5063572;28;20408;-83